Time;durP1;ratioP1;P1;durP2;ratioP2;P2;SDS_P1;SDS_P2;PMS_P1;PMS_P2;Temp;Humidity;BMP_temperature;BMP_pressure;BME280_temperature;BME280_humidity;BME280_pressure;Samples;Min_cycle;Max_cycle;Signal;HPM_P1;HPM_P2
2023/01/13 00:02:18;;;;;;;7.03;5.57;;;;;;;7.70;65.94;99875.41;5094377;28;20419;-80
2023/01/13 00:04:45;;;;;;;8.77;5.32;;;;;;;7.47;65.96;99836.44;5094151;28;20480;-82
2023/01/13 00:07:11;;;;;;;6.28;5.22;;;;;;;7.95;66.06;99929.81;5093854;28;20031;-80
2023/01/13 00:09:36;;;;;;;5.97;4.65;;;;;;;8.11;66.09;99943.09;5093916;28;20024;-80
2023/01/13 00:12:03;;;;;;;6.40;5.30;;;;;;;7.35;65.90;99829.75;5093750;28;20020;-80
2023/01/13 00:14:29;;;;;;;7.10;5.68;;;;;;;7.42;66.08;99822.91;5094068;28;20016;-80
2023/01/13 00:16:54;;;;;;;8.50;5.10;;;;;;;7.51;66.21;99840.44;5093893;28;20020;-79
2023/01/13 00:19:20;;;;;;;5.82;4.03;;;;;;;7.94;66.23;99920.28;5093744;28;20052;-80
2023/01/13 00:21:45;;;;;;;5.55;4.55;;;;;;;7.93;66.17;99916.84;5093771;28;20060;-79
2023/01/13 00:24:11;;;;;;;5.35;4.85;;;;;;;7.60;66.35;99875.47;5093490;28;20119;-79
2023/01/13 00:26:36;;;;;;;5.57;4.45;;;;;;;7.79;66.46;99916.53;5092355;28;20047;-79
2023/01/13 00:29:02;;;;;;;6.82;5.28;;;;;;;7.30;66.38;99850.38;5093443;28;20477;-80
2023/01/13 00:31:28;;;;;;;6.28;5.15;;;;;;;7.42;66.64;99849.19;5092264;28;20141;-79
2023/01/13 00:33:58;;;;;;;6.05;4.45;;;;;;;7.74;66.88;99914.38;5092110;28;20404;-80
2023/01/13 00:36:25;;;;;;;5.45;4.30;;;;;;;7.32;67.02;99836.13;5093468;28;20024;-80
2023/01/13 00:38:50;;;;;;;5.97;4.35;;;;;;;7.92;66.77;99946.72;5092150;28;20528;-79
2023/01/13 00:41:17;;;;;;;5.90;4.95;;;;;;;8.02;66.78;99943.19;5093365;28;20049;-80
2023/01/13 00:43:44;;;;;;;5.90;4.90;;;;;;;8.02;67.15;99944.03;5093315;28;20058;-80
2023/01/13 00:46:11;;;;;;;5.72;4.32;;;;;;;7.44;66.98;99860.41;5093467;28;20020;-80
2023/01/13 00:48:37;;;;;;;5.75;4.30;;;;;;;7.57;67.12;99879.22;5093327;28;20528;-80
2023/01/13 00:51:11;;;;;;;6.18;4.18;;;;;;;7.33;67.10;99834.31;5093112;28;20023;-80
2023/01/13 00:53:39;;;;;;;4.05;3.25;;;;;;;7.83;67.76;99921.34;5093308;28;20039;-80
2023/01/13 00:56:17;;;;;;;4.63;3.95;;;;;;;7.29;67.31;99878.44;5092846;28;20153;-79
2023/01/13 00:58:44;;;;;;;4.47;3.75;;;;;;;7.96;67.44;99934.09;5092922;28;20389;-79
2023/01/13 01:01:13;;;;;;;4.80;3.78;;;;;;;7.27;67.56;99816.53;5092876;28;20450;-79
2023/01/13 01:03:38;;;;;;;4.15;3.13;;;;;;;7.80;67.93;99903.25;5091694;28;20407;-79
2023/01/13 01:06:12;;;;;;;4.03;3.15;;;;;;;7.93;67.54;99929.97;5093049;28;20024;-79
2023/01/13 01:08:38;;;;;;;3.67;3.17;;;;;;;7.54;68.41;99882.16;5092918;28;20622;-79
2023/01/13 01:11:24;;;;;;;5.15;3.15;;;;;;;7.56;68.42;99882.84;5092728;28;20047;-79
2023/01/13 01:13:51;;;;;;;5.15;3.40;;;;;;;7.87;68.50;99930.59;5093021;28;20455;-79
2023/01/13 01:16:19;;;;;;;4.38;3.60;;;;;;;7.48;68.26;99868.81;5092854;28;20024;-79
2023/01/13 01:18:46;;;;;;;4.82;3.33;;;;;;;7.87;68.50;99932.38;5092724;28;20028;-79
2023/01/13 01:21:13;;;;;;;3.85;3.40;;;;;;;7.31;68.16;99850.22;5091295;28;20024;-79
2023/01/13 01:23:40;;;;;;;4.82;3.55;;;;;;;6.51;68.46;99751.28;5092438;28;20024;-79
2023/01/13 01:26:10;;;;;;;5.00;3.60;;;;;;;7.72;68.85;99916.31;5090982;28;20016;-79
2023/01/13 01:28:35;;;;;;;3.97;3.47;;;;;;;7.53;68.49;99880.50;5092340;28;20082;-79
2023/01/13 01:31:08;;;;;;;5.28;3.97;;;;;;;7.53;68.47;99885.78;5092423;28;20024;-79
2023/01/13 01:33:33;;;;;;;4.57;3.83;;;;;;;7.22;69.02;99845.88;5092340;28;20048;-79
2023/01/13 01:36:03;;;;;;;5.20;3.72;;;;;;;7.80;68.64;99924.28;5092489;28;20477;-80
2023/01/13 01:38:28;;;;;;;6.25;4.95;;;;;;;7.67;68.79;99907.25;5091054;28;20020;-79
2023/01/13 01:40:54;;;;;;;5.13;3.60;;;;;;;7.14;69.00;99816.09;5092234;28;20069;-80
2023/01/13 01:46:05;;;;;;;6.72;3.70;;;;;;;7.57;69.22;99894.19;5092252;28;20085;-78
2023/01/13 01:48:41;;;;;;;7.47;3.97;;;;;;;7.31;69.24;99855.47;5092162;28;20020;-78
2023/01/13 01:51:10;;;;;;;4.90;3.63;;;;;;;7.15;69.33;99825.63;5092143;28;20055;-78
2023/01/13 01:53:36;;;;;;;4.07;3.67;;;;;;;6.65;69.42;99744.69;5091848;28;20031;-78
2023/01/13 01:56:02;;;;;;;6.03;4.18;;;;;;;7.73;69.21;99920.59;5091765;28;20008;-78
2023/01/13 01:58:33;;;;;;;9.23;4.78;;;;;;;7.36;68.96;99859.47;5091813;28;20024;-78
2023/01/13 02:00:58;;;;;;;8.38;4.40;;;;;;;7.34;69.38;99859.63;5091701;28;20055;-78
2023/01/13 02:03:24;;;;;;;8.25;4.32;;;;;;;7.37;69.00;99866.38;5091838;28;20051;-79
2023/01/13 02:05:50;;;;;;;7.50;4.45;;;;;;;7.28;69.48;99855.78;5091740;28;20027;-78
2023/01/13 02:08:17;;;;;;;6.57;4.18;;;;;;;7.72;69.14;99920.75;5091399;28;20012;-78
2023/01/13 02:10:47;;;;;;;6.55;4.13;;;;;;;7.15;69.24;99830.88;5091911;28;20024;-78
2023/01/13 02:13:12;;;;;;;8.43;4.25;;;;;;;7.54;69.44;99895.31;5091801;28;20020;-78
2023/01/13 02:16:04;;;;;;;7.15;4.15;;;;;;;7.57;69.35;99908.13;5090466;28;20027;-78
2023/01/13 02:18:41;;;;;;;5.85;3.72;;;;;;;7.65;69.47;99915.28;5091461;28;20040;-80
2023/01/13 02:21:36;;;;;;;6.63;3.88;;;;;;;7.65;69.50;99916.09;5090326;28;20047;-81
2023/01/13 02:27:23;;;;;;;7.00;4.00;;;;;;;7.63;69.50;99919.84;5091750;28;20093;-79
2023/01/13 02:33:00;;;;;;;;;;;;;;;7.49;69.89;99923.81;5092419;28;20424;-80
2023/01/13 02:36:03;;;;;;;6.45;3.90;;;;;;;7.59;69.51;99918.50;5091655;28;19953;-80
2023/01/13 02:38:38;;;;;;;4.95;4.00;;;;;;;7.11;69.62;99834.75;5091480;28;20092;-80
2023/01/13 02:44:06;;;;;;;5.78;4.15;;;;;;;7.33;69.21;99871.91;5091739;28;20085;-81
2023/01/13 02:47:08;;;;;;;8.35;4.47;;;;;;;7.73;69.21;99919.78;5091354;28;20102;-80
2023/01/13 02:49:39;;;;;;;;;;;;;;;7.65;69.39;99925.78;5092074;28;20047;-81
2023/01/13 02:52:11;;;;;;;8.18;4.20;;;;;;;7.45;69.08;99884.88;5090057;28;19954;-79
2023/01/13 02:54:41;;;;;;;5.35;4.25;;;;;;;6.89;69.27;99792.22;5091272;28;20032;-79
2023/01/13 02:57:10;;;;;;;4.65;4.03;;;;;;;7.28;68.92;99849.69;5091361;28;20080;-79
2023/01/13 02:59:38;;;;;;;5.88;4.60;;;;;;;7.55;69.36;99902.22;5091218;28;20024;-80
2023/01/13 03:02:05;;;;;;;5.45;3.63;;;;;;;7.39;68.95;99878.38;5091147;28;20032;-79
2023/01/13 03:04:50;;;;;;;6.13;4.55;;;;;;;7.77;69.20;99921.13;5091119;28;20519;-79
2023/01/13 03:07:44;;;;;;;6.00;4.63;;;;;;;7.22;69.09;99839.78;5090218;28;20028;-80
2023/01/13 03:10:26;;;;;;;5.88;4.10;;;;;;;6.92;68.33;99793.72;5091635;28;20024;-80
2023/01/13 03:13:17;;;;;;;8.80;5.32;;;;;;;7.56;68.48;99892.53;5102937;28;20024;-81
2023/01/13 03:16:17;;;;;;;7.25;5.70;;;;;;;7.77;68.99;99929.84;5109479;28;20031;-79
2023/01/13 03:18:48;;;;;;;11.95;9.38;;;;;;;7.80;68.56;99923.44;5091625;28;20044;-81
2023/01/13 03:21:37;;;;;;;8.80;7.35;;;;;;;7.79;68.68;99920.00;5093882;28;20032;-79
2023/01/13 03:24:12;;;;;;;10.63;7.00;;;;;;;7.77;68.59;99929.84;5094950;28;20031;-79
2023/01/13 03:26:48;;;;;;;6.22;5.18;;;;;;;7.25;68.96;99848.19;5094983;28;20024;-80
2023/01/13 03:29:13;;;;;;;7.22;5.82;;;;;;;7.72;68.79;99931.25;5095159;28;20127;-79
2023/01/13 03:31:46;;;;;;;5.60;4.82;;;;;;;7.71;68.84;99927.00;5093815;28;20507;-80
2023/01/13 03:34:20;;;;;;;8.10;5.43;;;;;;;7.31;69.10;99873.03;5106055;28;20020;-79
2023/01/13 03:36:50;;;;;;;8.27;5.43;;;;;;;7.71;68.93;99929.63;5098540;28;20032;-80
2023/01/13 03:39:24;;;;;;;6.35;5.47;;;;;;;7.41;68.42;99892.19;5094636;28;20519;-80
2023/01/13 03:42:06;;;;;;;5.88;4.60;;;;;;;7.05;68.97;99825.69;5094555;28;20032;-79
2023/01/13 03:44:38;;;;;;;7.25;5.20;;;;;;;7.69;68.53;99926.31;5094530;28;20028;-79
2023/01/13 03:47:16;;;;;;;8.98;5.60;;;;;;;7.71;68.83;99940.13;5094618;28;20035;-79
2023/01/13 03:49:47;;;;;;;6.05;4.40;;;;;;;7.72;68.79;99939.16;5094537;28;20107;-79
2023/01/13 03:52:21;;;;;;;7.80;5.05;;;;;;;7.28;68.24;99863.66;5094189;28;20038;-79
2023/01/13 03:55:03;;;;;;;6.95;5.05;;;;;;;7.16;68.62;99851.72;5094199;28;20031;-79
2023/01/13 03:57:35;;;;;;;5.55;4.80;;;;;;;7.37;68.82;99884.75;5094216;28;20028;-79
2023/01/13 04:00:04;;;;;;;7.28;5.95;;;;;;;7.78;68.83;99949.88;5094197;28;20477;-79
2023/01/13 04:02:42;;;;;;;11.88;7.40;;;;;;;7.23;68.58;99863.28;5094213;28;20024;-80
2023/01/13 04:05:09;;;;;;;9.65;7.07;;;;;;;7.76;68.59;99962.34;5094186;28;20490;-79
2023/01/13 04:07:48;;;;;;;9.50;7.40;;;;;;;7.29;68.30;99901.25;5093582;28;20078;-79
2023/01/13 04:10:20;;;;;;;7.80;6.47;;;;;;;7.04;68.54;99844.22;5094063;28;20020;-80
2023/01/13 04:13:01;;;;;;;7.70;5.15;;;;;;;7.46;68.78;99908.34;5092663;28;20152;-79
2023/01/13 04:15:45;;;;;;;6.80;5.00;;;;;;;7.14;68.33;99876.47;5094096;28;20638;-80
2023/01/13 04:18:11;;;;;;;10.23;5.38;;;;;;;7.75;68.84;99965.13;5093930;28;20032;-79
2023/01/13 04:20:37;;;;;;;9.05;5.60;;;;;;;7.58;68.99;99945.75;5093714;28;20059;-79
2023/01/13 04:23:03;;;;;;;6.53;5.65;;;;;;;7.33;69.00;99905.25;5093651;28;20034;-79
2023/01/13 04:25:28;;;;;;;7.53;6.05;;;;;;;7.56;68.51;99945.91;5094008;28;20020;-80
2023/01/13 04:27:53;;;;;;;7.60;6.18;;;;;;;7.17;69.02;99884.06;5093763;28;20063;-79
2023/01/13 04:30:19;;;;;;;10.23;6.22;;;;;;;7.34;68.85;99920.03;5093182;28;20016;-81
2023/01/13 04:32:44;;;;;;;9.18;6.00;;;;;;;7.17;68.74;99898.00;5092239;28;20098;-79
2023/01/13 04:35:10;;;;;;;6.80;5.57;;;;;;;6.96;68.93;99864.16;5093596;28;20077;-79
2023/01/13 04:37:35;;;;;;;7.57;5.93;;;;;;;7.04;68.71;99881.78;5093505;28;20039;-79
2023/01/13 04:40:00;;;;;;;7.53;6.03;;;;;;;7.03;68.88;99881.94;5093398;28;20047;-79
2023/01/13 04:42:26;;;;;;;9.43;5.57;;;;;;;7.48;69.12;99974.72;5093390;28;20504;-79
2023/01/13 04:44:51;;;;;;;6.90;5.35;;;;;;;7.38;69.02;99931.06;5093241;28;20035;-79
2023/01/13 04:47:17;;;;;;;7.00;5.15;;;;;;;7.31;68.81;99926.41;5091940;28;20055;-79
2023/01/13 04:49:42;;;;;;;10.73;6.05;;;;;;;7.48;68.42;99971.25;5091918;28;20028;-79
2023/01/13 04:52:07;;;;;;;8.05;5.90;;;;;;;7.74;68.41;99995.84;5093429;28;20503;-79
2023/01/13 04:54:33;;;;;;;10.88;6.32;;;;;;;7.37;68.56;99932.03;5092905;28;20031;-79
2023/01/13 04:56:58;;;;;;;8.73;6.07;;;;;;;6.97;68.55;99885.97;5091645;28;20035;-79
2023/01/13 04:59:24;;;;;;;11.98;6.88;;;;;;;7.72;68.43;100013.56;5091622;28;20020;-79
2023/01/13 05:01:49;;;;;;;9.68;6.88;;;;;;;7.49;68.38;99965.03;5092973;28;20444;-79
2023/01/13 05:04:15;;;;;;;12.88;6.53;;;;;;;7.38;68.15;99944.19;5091525;28;20062;-79
2023/01/13 05:06:41;;;;;;;9.40;6.32;;;;;;;6.95;68.21;99887.91;5092716;28;20016;-79
2023/01/13 05:09:06;;;;;;;10.38;6.97;;;;;;;7.61;68.35;99980.44;5092651;28;20039;-79
2023/01/13 05:17:00;;;;;;;15.18;9.50;;;;;;;7.14;68.21;99905.34;5092639;28;20039;-79
2023/01/13 05:19:27;;;;;;;18.80;11.45;;;;;;;7.68;67.74;99998.25;5091202;28;20099;-79
2023/01/13 05:27:20;;;;;;;18.30;10.65;;;;;;;7.39;67.74;99967.69;5092377;28;20115;-80
2023/01/13 05:29:46;;;;;;;16.92;11.10;;;;;;;7.46;68.33;99974.03;5091302;28;20115;-79
2023/01/13 05:32:11;;;;;;;20.85;12.35;;;;;;;7.30;68.27;99958.06;5092499;28;20020;-79
2023/01/13 05:34:37;;;;;;;16.73;12.23;;;;;;;7.67;68.06;100010.56;5092790;28;20077;-79
2023/01/13 05:37:04;;;;;;;18.02;13.73;;;;;;;7.43;67.94;99979.59;5092498;28;20019;-80
2023/01/13 05:43:18;;;;;;;16.50;10.50;;;;;;;7.29;67.89;99957.25;5091215;28;20027;-79
2023/01/13 05:44:59;;;;;;;11.05;8.30;;;;;;;6.96;67.43;99902.69;5092452;28;20065;-80
2023/01/13 05:47:24;;;;;;;11.88;8.90;;;;;;;7.30;67.75;99971.19;5092155;28;20023;-80
2023/01/13 05:49:49;;;;;;;9.93;7.60;;;;;;;6.78;67.60;99871.16;5092736;28;20028;-83
2023/01/13 05:52:15;;;;;;;9.13;6.95;;;;;;;6.80;67.74;99908.56;5090752;28;20507;-80
2023/01/13 05:54:40;;;;;;;7.10;5.50;;;;;;;7.08;67.70;99935.66;5092016;28;20089;-80
2023/01/13 05:57:06;;;;;;;7.18;6.32;;;;;;;7.30;68.08;99960.69;5090968;28;20409;-80
2023/01/13 05:59:31;;;;;;;7.63;6.70;;;;;;;6.88;67.80;99894.72;5091775;28;20166;-80
2023/01/13 06:01:56;;;;;;;7.72;6.80;;;;;;;7.60;67.82;100018.22;5090570;28;20108;-80
2023/01/13 06:04:22;;;;;;;9.65;6.38;;;;;;;6.69;68.05;99862.34;5090463;28;20488;-80
2023/01/13 06:06:47;;;;;;;9.05;6.82;;;;;;;6.98;68.25;99917.31;5092086;28;20103;-82
2023/01/13 06:09:13;;;;;;;8.65;6.72;;;;;;;7.21;68.62;99966.81;5091646;28;20488;-80
2023/01/13 06:11:38;;;;;;;12.98;8.48;;;;;;;7.42;68.18;100012.06;5090245;28;20020;-82
2023/01/13 06:14:04;;;;;;;10.13;7.60;;;;;;;7.40;68.68;99992.16;5091684;28;20035;-81
2023/01/13 06:16:29;;;;;;;6.47;5.32;;;;;;;6.88;67.95;99924.44;5090136;28;20389;-81
2023/01/13 06:18:55;;;;;;;6.22;5.30;;;;;;;7.45;68.01;100040.69;5091402;28;20111;-81
2023/01/13 06:21:20;;;;;;;6.38;5.13;;;;;;;7.36;67.71;100003.94;5091519;28;20082;-80
2023/01/13 06:23:45;;;;;;;7.63;5.97;;;;;;;7.54;68.56;100033.72;5091443;28;20103;-80
2023/01/13 06:26:16;;;;;;;10.30;7.47;;;;;;;6.65;68.40;99894.25;5090105;28;20089;-80
2023/01/13 06:28:42;;;;;;;8.83;6.87;;;;;;;7.32;68.24;100009.47;5091508;28;20111;-80
2023/01/13 06:31:09;;;;;;;11.63;6.60;;;;;;;7.56;68.61;100037.88;5090193;28;20536;-80
2023/01/13 06:33:43;;;;;;;8.85;7.30;;;;;;;6.88;68.79;99926.22;5090127;28;20488;-80
2023/01/13 06:36:28;;;;;;;10.35;7.70;;;;;;;7.58;68.37;100038.56;5091526;28;20024;-80
2023/01/13 06:38:58;;;;;;;11.15;8.25;;;;;;;7.23;68.70;100001.66;5091411;28;20031;-80
2023/01/13 06:44:10;;;;;;;12.75;9.18;;;;;;;7.64;68.39;100055.53;5091374;28;20123;-79
2023/01/13 06:46:36;;;;;;;12.52;9.48;;;;;;;7.52;68.45;100033.88;5090007;28;20111;-80
2023/01/13 06:49:01;;;;;;;10.98;8.65;;;;;;;7.69;68.91;100063.81;5084527;28;20408;-80
2023/01/13 06:51:27;;;;;;;14.73;11.10;;;;;;;7.19;68.25;99976.66;5086162;28;20024;-80
2023/01/13 06:53:52;;;;;;;16.58;11.35;;;;;;;7.03;68.58;99971.19;5089016;28;20028;-79
2023/01/13 06:56:18;;;;;;;13.55;9.85;;;;;;;7.42;68.92;100035.69;5091154;28;20035;-80
2023/01/13 06:58:43;;;;;;;16.35;13.43;;;;;;;7.39;68.60;100020.22;5093188;28;20558;-79
2023/01/13 07:01:08;;;;;;;15.35;12.43;;;;;;;6.94;68.47;99962.38;5091281;28;20028;-80
2023/01/13 07:03:34;;;;;;;15.90;11.98;;;;;;;7.44;68.90;100038.22;5094840;28;20028;-80
2023/01/13 07:06:00;;;;;;;17.60;13.00;;;;;;;7.59;68.93;100069.09;5091135;28;20031;-79
2023/01/13 07:08:26;;;;;;;20.55;14.07;;;;;;;7.06;68.57;99968.28;5093682;28;20420;-80
2023/01/13 07:10:52;;;;;;;17.27;13.00;;;;;;;7.48;68.50;100039.56;5095115;28;20091;-80
2023/01/13 07:16:03;;;;;;;16.35;11.50;;;;;;;7.70;68.39;100075.97;5093429;28;20154;-80
2023/01/13 07:18:30;;;;;;;23.30;15.57;;;;;;;7.56;68.71;100058.06;5091012;28;20039;-79
2023/01/13 07:21:04;;;;;;;20.42;15.07;;;;;;;7.76;69.11;100085.06;5088963;28;20076;-80
2023/01/13 07:23:33;;;;;;;21.30;14.52;;;;;;;7.38;68.88;100036.13;5093869;28;20420;-79
2023/01/13 07:25:59;;;;;;;22.67;16.13;;;;;;;6.79;68.35;99933.16;5093870;28;20036;-80
2023/01/13 07:28:25;;;;;;;26.65;19.77;;;;;;;7.64;68.68;100076.56;5093259;28;20411;-80
2023/01/13 07:30:51;;;;;;;24.55;16.60;;;;;;;7.25;68.83;100011.03;5087557;28;20017;-80
2023/01/13 07:33:17;;;;;;;24.20;15.45;;;;;;;6.87;68.42;99942.94;5085979;28;20020;-80
2023/01/13 07:35:44;;;;;;;19.83;16.25;;;;;;;7.50;69.07;100046.34;5093473;28;20024;-80
2023/01/13 07:38:09;;;;;;;21.50;14.95;;;;;;;7.28;68.74;100023.03;5092514;28;20012;-79
2023/01/13 07:40:35;;;;;;;22.38;15.43;;;;;;;7.49;68.59;100065.69;5090542;28;20401;-80
2023/01/13 07:45:44;;;;;;;20.30;15.10;;;;;;;7.33;68.49;100050.53;5085342;28;20069;-80
2023/01/13 07:48:10;;;;;;;21.27;14.65;;;;;;;7.19;68.90;100023.91;5091576;28;20028;-80
2023/01/13 07:50:35;;;;;;;23.98;14.70;;;;;;;7.42;69.14;100056.72;5090605;28;20042;-80
2023/01/13 07:53:00;;;;;;;24.35;16.10;;;;;;;7.46;68.79;100088.81;5093569;28;20039;-80
2023/01/13 07:55:26;;;;;;;24.35;16.95;;;;;;;7.58;68.89;100113.94;5089733;28;20063;-79
2023/01/13 07:57:51;;;;;;;28.38;18.10;;;;;;;7.63;68.98;100088.88;5092148;28;20027;-79
2023/01/13 08:00:17;;;;;;;31.08;21.23;;;;;;;6.98;68.78;99990.84;5090523;28;20112;-80
2023/01/13 08:02:42;;;;;;;37.28;22.58;;;;;;;7.26;68.72;100033.69;5093527;28;20028;-79
2023/01/13 08:05:08;;;;;;;35.83;22.35;;;;;;;7.21;68.62;100021.97;5093188;28;20028;-80
2023/01/13 08:07:34;;;;;;;36.10;22.50;;;;;;;7.51;68.57;100073.44;5092089;28;20080;-80
2023/01/13 08:10:00;;;;;;;38.00;24.92;;;;;;;7.50;68.68;100064.72;5083851;28;20036;-79
2023/01/13 08:15:09;;;;;;;38.70;22.73;;;;;;;7.57;68.29;100064.97;5090534;28;20471;-81
2023/01/13 08:17:35;;;;;;;31.52;21.58;;;;;;;7.59;68.21;100057.78;5092663;28;20028;-79
2023/01/13 08:20:03;;;;;;;35.30;24.27;;;;;;;7.56;67.99;100063.31;5092028;28;20055;-80
2023/01/13 08:22:29;;;;;;;34.78;21.70;;;;;;;7.09;68.11;99974.06;5093680;28;20040;-80
2023/01/13 08:24:55;;;;;;;33.80;22.02;;;;;;;7.78;68.16;100094.47;5091257;28;20032;-80
2023/01/13 08:27:21;;;;;;;33.25;21.50;;;;;;;7.56;67.91;100058.88;5093271;28;20089;-80
2023/01/13 08:29:47;;;;;;;36.15;24.83;;;;;;;7.56;68.25;100050.19;5093197;28;20036;-80
2023/01/13 08:32:12;;;;;;;35.25;22.67;;;;;;;7.63;68.02;100057.34;5093342;28;20160;-80
2023/01/13 08:34:37;;;;;;;32.28;20.77;;;;;;;7.76;68.32;100079.81;5090451;28;20024;-82
2023/01/13 08:37:03;;;;;;;34.63;24.08;;;;;;;7.42;68.09;100046.22;5092026;28;20471;-83
2023/01/13 08:39:28;;;;;;;37.78;26.55;;;;;;;7.64;68.13;100060.78;5093803;28;20459;-82
2023/01/13 08:41:54;;;;;;;47.50;32.47;;;;;;;7.71;67.69;100072.38;5093596;28;20032;-81
2023/01/13 08:44:19;;;;;;;44.35;30.95;;;;;;;7.69;68.13;100073.50;5093945;28;20077;-80
2023/01/13 08:46:44;;;;;;;41.13;27.58;;;;;;;7.62;68.13;100084.59;5093107;28;20536;-82
2023/01/13 08:49:10;;;;;;;35.95;23.58;;;;;;;7.60;68.28;100059.44;5090261;28;20032;-82
2023/01/13 08:51:35;;;;;;;33.83;24.05;;;;;;;7.84;67.91;100104.38;5102584;28;20035;-81
2023/01/13 08:54:01;;;;;;;38.95;26.80;;;;;;;7.19;67.75;99989.78;5099419;28;20028;-80
2023/01/13 08:56:28;;;;;;;40.22;26.52;;;;;;;7.69;68.07;100076.13;5095515;28;20394;-81
2023/01/13 08:58:57;;;;;;;41.03;27.45;;;;;;;7.15;67.80;99964.78;5092622;28;20035;-81
2023/01/13 09:01:23;;;;;;;39.05;26.65;;;;;;;7.46;67.43;100017.88;5089863;28;20036;-84
2023/01/13 09:03:48;;;;;;;36.08;24.58;;;;;;;7.91;67.92;100080.97;5086445;28;20104;-82
2023/01/13 09:06:14;;;;;;;35.03;24.25;;;;;;;8.17;67.66;100104.75;5092691;28;20480;-83
2023/01/13 09:08:39;;;;;;;38.45;24.20;;;;;;;8.21;67.24;100095.59;5099821;28;20504;-82
2023/01/13 09:13:10;;;;;;;31.27;20.63;;;;;;;8.27;67.25;100098.47;5096659;28;20416;-82
2023/01/13 09:13:50;;;;;;;35.50;24.13;;;;;;;7.52;67.37;99972.63;5092438;28;20078;-82
2023/01/13 09:16:16;;;;;;;32.10;21.95;;;;;;;7.39;66.96;99933.53;5092234;28;20105;-85
2023/01/13 09:18:41;;;;;;;33.05;22.80;;;;;;;7.84;67.13;99995.78;5090528;28;20405;-84
2023/01/13 09:21:10;;;;;;;29.45;22.42;;;;;;;7.91;66.96;100009.97;5089445;28;20032;-83
2023/01/13 09:23:36;;;;;;;32.35;23.20;;;;;;;7.89;66.82;100046.09;5109755;28;20111;-84
2023/01/13 09:26:01;;;;;;;30.77;22.42;;;;;;;7.32;66.86;99908.84;5091113;28;20157;-82
2023/01/13 09:28:28;;;;;;;34.92;22.45;;;;;;;8.45;66.23;100077.44;5090852;28;20496;-81
2023/01/13 09:30:53;;;;;;;28.08;21.92;;;;;;;8.12;66.43;100018.41;5090821;28;20027;-82
2023/01/13 09:36:02;;;;;;;24.75;18.77;;;;;;;8.21;66.58;100025.41;5092154;28;20047;-81
2023/01/13 09:38:28;;;;;;;25.10;17.85;;;;;;;8.05;66.53;100022.59;5102856;28;20019;-82
2023/01/13 09:40:54;;;;;;;25.15;17.48;;;;;;;8.47;66.21;100053.63;5099904;28;20122;-82
2023/01/13 09:49:02;;;;;;;34.00;19.73;;;;;;;8.41;66.05;100033.16;5087227;28;20184;-82
2023/01/13 09:51:42;;;;;;;25.63;17.60;;;;;;;8.26;65.51;99988.97;5090413;28;20023;-81
2023/01/13 09:54:20;;;;;;;32.03;18.85;;;;;;;8.67;65.35;100033.19;5084255;28;20044;-80
2023/01/13 09:56:45;;;;;;;32.55;19.63;;;;;;;8.86;65.57;100054.91;5094983;28;20047;-82
2023/01/13 09:59:11;;;;;;;31.13;18.98;;;;;;;8.95;65.48;100065.50;5091125;28;20070;-81
2023/01/13 10:01:45;;;;;;;34.92;17.95;;;;;;;8.03;65.32;99906.22;5088696;28;20039;-81
2023/01/13 10:04:14;;;;;;;30.50;19.45;;;;;;;8.96;65.17;100062.72;5093165;28;20028;-81
2023/01/13 10:06:43;;;;;;;38.53;20.23;;;;;;;9.00;65.01;100055.34;5111759;28;20046;-81
2023/01/13 10:09:21;;;;;;;40.47;18.52;;;;;;;8.74;64.99;100007.91;5093026;28;20042;-82
2023/01/13 10:15:05;;;;;;;33.78;18.77;;;;;;;9.10;64.57;100037.63;5093081;28;20042;-81
2023/01/13 10:17:48;;;;;;;30.25;17.65;;;;;;;9.16;64.17;100053.63;5070527;28;20174;-83
2023/01/13 10:20:31;;;;;;;33.10;18.80;;;;;;;9.22;64.54;100039.00;5069705;28;20479;-82
2023/01/13 10:23:17;;;;;;;33.35;19.67;;;;;;;8.58;64.06;99927.88;5075647;28;20487;-82
2023/01/13 10:26:03;;;;;;;28.25;17.55;;;;;;;9.06;63.55;99996.78;5089555;28;20500;-82
2023/01/13 10:28:28;;;;;;;32.42;18.52;;;;;;;8.80;63.66;99936.22;5084709;28;20519;-83
2023/01/13 10:30:54;;;;;;;26.60;15.75;;;;;;;8.94;63.66;99943.53;5089293;28;20020;-83
2023/01/13 10:33:27;;;;;;;25.42;14.45;;;;;;;9.54;62.78;100028.59;5091241;28;20020;-81
2023/01/13 10:35:59;;;;;;;30.17;17.08;;;;;;;9.60;62.84;100021.03;5088219;28;20028;-81
2023/01/13 10:38:26;;;;;;;33.97;19.13;;;;;;;9.54;62.99;99982.94;5084851;28;20028;-80
2023/01/13 10:40:55;;;;;;;34.70;21.60;;;;;;;9.79;62.92;100020.78;5090037;28;20024;-80
2023/01/13 10:43:21;;;;;;;38.72;21.80;;;;;;;9.28;62.53;99918.97;5074956;28;20046;-82
2023/01/13 10:46:11;;;;;;;31.42;20.80;;;;;;;10.06;61.69;100015.22;5092457;28;20057;-81
2023/01/13 10:48:38;;;;;;;30.95;18.73;;;;;;;10.23;62.60;100015.28;5104770;28;20043;-83
2023/01/13 10:51:12;;;;;;;35.60;20.15;;;;;;;10.12;61.51;99985.56;5089195;28;20012;-84
2023/01/13 10:53:49;;;;;;;25.75;17.33;;;;;;;10.34;61.69;100014.94;5089820;28;20069;-82
2023/01/13 10:56:17;;;;;;;20.08;13.02;;;;;;;9.61;61.60;99886.41;5090799;28;20054;-82
2023/01/13 10:58:42;;;;;;;14.82;10.93;;;;;;;9.86;61.00;99932.94;5087728;28;20496;-79
2023/01/13 11:01:24;;;;;;;16.95;11.68;;;;;;;9.91;60.92;99955.38;5088416;28;20074;-81
2023/01/13 11:03:50;;;;;;;17.85;11.68;;;;;;;9.83;61.59;99948.28;5091103;28;20036;-81
2023/01/13 11:06:22;;;;;;;16.67;11.18;;;;;;;10.17;61.78;100001.72;5087616;28;20032;-83
2023/01/13 11:08:50;;;;;;;11.65;7.78;;;;;;;9.40;61.64;99893.97;5098929;28;20035;-83
2023/01/13 11:11:26;;;;;;;13.27;6.85;;;;;;;9.81;61.23;99958.16;5089789;28;20017;-82
2023/01/13 11:16:47;;;;;;;10.00;7.78;;;;;;;9.64;61.33;99938.00;5089216;28;20423;-83
2023/01/13 11:19:17;;;;;;;11.02;6.45;;;;;;;9.76;61.71;99977.09;5104621;28;20455;-79
2023/01/13 11:21:59;;;;;;;14.93;8.18;;;;;;;9.69;61.86;99951.53;5090620;28;20016;-83
2023/01/13 11:24:40;;;;;;;9.00;4.90;;;;;;;9.49;61.29;99916.72;5090579;28;20032;-82
2023/01/13 11:27:33;;;;;;;7.15;4.28;;;;;;;9.99;61.23;99979.13;5091699;28;20415;-82
2023/01/13 11:30:09;;;;;;;9.20;5.65;;;;;;;10.06;61.27;99977.47;5093822;28;20031;-82
2023/01/13 11:32:45;;;;;;;8.88;5.82;;;;;;;10.13;61.05;99975.81;5094456;28;20432;-82
2023/01/13 11:35:19;;;;;;;8.25;6.38;;;;;;;9.98;61.34;99941.34;5089452;28;20027;-80
2023/01/13 11:37:52;;;;;;;13.57;10.55;;;;;;;9.30;61.41;99844.06;5086523;28;20111;-81
2023/01/13 11:40:26;;;;;;;11.70;7.88;;;;;;;10.11;61.34;99970.72;5085883;28;20031;-83
2023/01/13 11:43:11;;;;;;;10.18;6.55;;;;;;;9.94;61.35;99937.41;5091655;28;20020;-83
2023/01/13 11:45:53;;;;;;;10.02;5.90;;;;;;;10.17;61.46;99964.78;5090004;28;20498;-83
2023/01/13 11:48:24;;;;;;;9.25;7.55;;;;;;;9.96;60.85;99931.97;5090246;28;20035;-83
2023/01/13 11:51:20;;;;;;;10.98;6.80;;;;;;;10.16;60.73;99964.94;5085642;28;20435;-81
2023/01/13 11:54:03;;;;;;;9.90;6.40;;;;;;;10.11;61.01;99954.88;5093338;28;20114;-84
2023/01/13 11:56:29;;;;;;;14.13;7.30;;;;;;;10.15;61.30;99955.38;5095666;28;20080;-84
2023/01/13 11:59:04;;;;;;;11.68;7.63;;;;;;;10.15;61.10;99964.13;5087868;28;20107;-84
2023/01/13 12:01:37;;;;;;;11.40;7.30;;;;;;;9.83;61.22;99904.25;5107693;28;20020;-82
2023/01/13 12:04:34;;;;;;;17.20;9.20;;;;;;;10.14;61.60;99962.47;5092562;28;20035;-83
2023/01/13 12:07:19;;;;;;;17.15;7.60;;;;;;;9.56;61.75;99865.81;5087560;28;20035;-83
2023/01/13 12:10:30;;;;;;;11.32;7.95;;;;;;;10.03;62.13;99925.03;5092399;28;20508;-82
2023/01/13 12:13:06;;;;;;;20.55;9.40;;;;;;;10.13;61.36;99952.91;5090021;28;20028;-83
2023/01/13 12:15:55;;;;;;;17.38;9.95;;;;;;;9.71;62.07;99888.94;5099404;28;20047;-82
2023/01/13 12:18:40;;;;;;;15.95;9.80;;;;;;;10.12;62.30;99953.06;5109941;28;20036;-80
2023/01/13 12:21:24;;;;;;;18.80;9.85;;;;;;;9.79;62.29;99915.31;5092989;28;20034;-80
2023/01/13 12:23:56;;;;;;;12.48;7.85;;;;;;;10.09;62.30;99943.66;5090097;28;20020;-81
2023/01/13 12:26:22;;;;;;;15.65;9.20;;;;;;;9.88;62.32;99930.16;5088790;28;20085;-81
2023/01/13 12:28:53;;;;;;;15.45;7.93;;;;;;;9.80;62.01;99915.13;5088897;28;20032;-81
2023/01/13 12:31:20;;;;;;;14.85;8.73;;;;;;;9.05;62.64;99797.56;5102690;28;20451;-83
2023/01/13 12:34:28;;;;;;;21.95;10.23;;;;;;;9.97;62.33;99949.44;5087422;28;20036;-82
2023/01/13 12:37:05;;;;;;;16.35;8.68;;;;;;;9.96;62.67;99947.78;5080834;28;20040;-83
2023/01/13 12:39:49;;;;;;;17.50;8.90;;;;;;;9.94;62.27;99955.88;5087556;28;20999;-83